sensor_id;sensor_type;location;lat;lon;timestamp;temperature;humidity
152;DHT22;68;48.792;9.164;2023-05-16T00:00:44;13.20;93.60
152;DHT22;68;48.792;9.164;2023-05-16T00:03:12;13.20;93.70
152;DHT22;68;48.792;9.164;2023-05-16T00:05:39;13.20;93.60
152;DHT22;68;48.792;9.164;2023-05-16T00:08:06;13.10;93.60
152;DHT22;68;48.792;9.164;2023-05-16T00:10:33;13.10;92.60
152;DHT22;68;48.792;9.164;2023-05-16T00:13:00;13.10;93.20
152;DHT22;68;48.792;9.164;2023-05-16T00:15:27;13.10;92.50
152;DHT22;68;48.792;9.164;2023-05-16T00:17:56;13.10;92.90
152;DHT22;68;48.792;9.164;2023-05-16T00:20:24;13.00;90.80
152;DHT22;68;48.792;9.164;2023-05-16T00:22:51;13.00;89.90
152;DHT22;68;48.792;9.164;2023-05-16T00:25:18;13.10;90.00
152;DHT22;68;48.792;9.164;2023-05-16T00:27:44;13.20;91.70
152;DHT22;68;48.792;9.164;2023-05-16T00:30:12;13.40;93.60
152;DHT22;68;48.792;9.164;2023-05-16T00:32:39;13.20;94.40
152;DHT22;68;48.792;9.164;2023-05-16T00:35:07;13.40;93.80
152;DHT22;68;48.792;9.164;2023-05-16T00:37:36;13.50;94.20
152;DHT22;68;48.792;9.164;2023-05-16T00:40:03;13.50;94.70
152;DHT22;68;48.792;9.164;2023-05-16T00:42:30;13.40;94.50
152;DHT22;68;48.792;9.164;2023-05-16T00:44:57;13.30;94.40
152;DHT22;68;48.792;9.164;2023-05-16T00:47:23;13.30;94.40
152;DHT22;68;48.792;9.164;2023-05-16T00:49:52;13.50;94.70
152;DHT22;68;48.792;9.164;2023-05-16T00:52:20;13.30;94.60
152;DHT22;68;48.792;9.164;2023-05-16T00:54:47;13.20;94.40
152;DHT22;68;48.792;9.164;2023-05-16T00:57:14;13.30;94.10
152;DHT22;68;48.792;9.164;2023-05-16T00:59:42;13.20;94.10
152;DHT22;68;48.792;9.164;2023-05-16T01:02:10;13.20;93.60
152;DHT22;68;48.792;9.164;2023-05-16T01:04:37;13.20;93.10
152;DHT22;68;48.792;9.164;2023-05-16T01:07:04;13.10;92.10
152;DHT22;68;48.792;9.164;2023-05-16T01:09:33;13.00;92.80
152;DHT22;68;48.792;9.164;2023-05-16T01:12:07;13.10;92.10
152;DHT22;68;48.792;9.164;2023-05-16T01:14:40;13.20;93.40
152;DHT22;68;48.792;9.164;2023-05-16T01:17:16;13.30;93.90
152;DHT22;68;48.792;9.164;2023-05-16T01:19:57;13.10;94.10
152;DHT22;68;48.792;9.164;2023-05-16T01:22:37;13.00;92.90
152;DHT22;68;48.792;9.164;2023-05-16T01:25:20;13.00;93.00
152;DHT22;68;48.792;9.164;2023-05-16T01:27:48;12.70;92.30
152;DHT22;68;48.792;9.164;2023-05-16T01:30:18;12.60;90.30
152;DHT22;68;48.792;9.164;2023-05-16T01:32:45;12.60;91.20
152;DHT22;68;48.792;9.164;2023-05-16T01:35:15;12.60;91.20
152;DHT22;68;48.792;9.164;2023-05-16T01:37:49;12.60;90.80
152;DHT22;68;48.792;9.164;2023-05-16T01:40:24;12.60;89.90
152;DHT22;68;48.792;9.164;2023-05-16T01:42:55;12.70;90.50
152;DHT22;68;48.792;9.164;2023-05-16T01:45:28;12.60;90.20
152;DHT22;68;48.792;9.164;2023-05-16T01:48:06;12.50;90.60
152;DHT22;68;48.792;9.164;2023-05-16T01:50:37;12.40;90.20
152;DHT22;68;48.792;9.164;2023-05-16T01:53:08;12.40;89.50
152;DHT22;68;48.792;9.164;2023-05-16T01:55:41;12.30;88.50
152;DHT22;68;48.792;9.164;2023-05-16T01:58:11;12.20;87.80
152;DHT22;68;48.792;9.164;2023-05-16T02:00:39;12.30;86.30
152;DHT22;68;48.792;9.164;2023-05-16T02:03:06;12.30;88.50
152;DHT22;68;48.792;9.164;2023-05-16T02:05:33;12.30;86.30
152;DHT22;68;48.792;9.164;2023-05-16T02:08:00;12.40;88.60
152;DHT22;68;48.792;9.164;2023-05-16T02:10:27;12.40;90.20
152;DHT22;68;48.792;9.164;2023-05-16T02:12:54;12.50;90.50
152;DHT22;68;48.792;9.164;2023-05-16T02:15:22;12.40;89.40
152;DHT22;68;48.792;9.164;2023-05-16T02:17:49;12.40;89.60
152;DHT22;68;48.792;9.164;2023-05-16T02:20:15;12.40;91.20
152;DHT22;68;48.792;9.164;2023-05-16T02:22:42;12.30;88.80
152;DHT22;68;48.792;9.164;2023-05-16T02:25:12;12.30;88.90
152;DHT22;68;48.792;9.164;2023-05-16T02:27:39;12.30;89.50
152;DHT22;68;48.792;9.164;2023-05-16T02:30:08;12.50;89.20
152;DHT22;68;48.792;9.164;2023-05-16T02:32:36;12.70;91.70
152;DHT22;68;48.792;9.164;2023-05-16T02:35:04;12.60;92.10
152;DHT22;68;48.792;9.164;2023-05-16T02:37:31;12.60;91.90
152;DHT22;68;48.792;9.164;2023-05-16T02:39:58;12.50;91.10
152;DHT22;68;48.792;9.164;2023-05-16T02:42:25;12.70;92.20
152;DHT22;68;48.792;9.164;2023-05-16T02:44:52;12.60;92.20
152;DHT22;68;48.792;9.164;2023-05-16T02:47:19;12.40;91.90
152;DHT22;68;48.792;9.164;2023-05-16T02:49:47;12.40;89.40
152;DHT22;68;48.792;9.164;2023-05-16T02:52:14;12.50;90.70
152;DHT22;68;48.792;9.164;2023-05-16T02:54:41;12.60;91.30
152;DHT22;68;48.792;9.164;2023-05-16T02:57:07;12.40;91.30
152;DHT22;68;48.792;9.164;2023-05-16T02:59:34;12.30;91.30
152;DHT22;68;48.792;9.164;2023-05-16T03:02:01;12.20;90.10
152;DHT22;68;48.792;9.164;2023-05-16T03:04:28;12.30;89.30
152;DHT22;68;48.792;9.164;2023-05-16T03:06:56;12.30;90.40
152;DHT22;68;48.792;9.164;2023-05-16T03:09:23;12.10;87.80
152;DHT22;68;48.792;9.164;2023-05-16T03:11:50;12.40;87.70
152;DHT22;68;48.792;9.164;2023-05-16T03:14:17;12.20;89.10
152;DHT22;68;48.792;9.164;2023-05-16T03:16:44;12.10;88.60
152;DHT22;68;48.792;9.164;2023-05-16T03:19:10;12.20;89.80
152;DHT22;68;48.792;9.164;2023-05-16T03:21:38;12.20;90.40
152;DHT22;68;48.792;9.164;2023-05-16T03:24:07;12.20;90.00
152;DHT22;68;48.792;9.164;2023-05-16T03:26:34;12.10;88.40
152;DHT22;68;48.792;9.164;2023-05-16T03:29:01;12.10;88.10
152;DHT22;68;48.792;9.164;2023-05-16T03:31:27;12.20;87.40
152;DHT22;68;48.792;9.164;2023-05-16T03:33:54;12.00;87.40
152;DHT22;68;48.792;9.164;2023-05-16T03:36:21;11.90;86.60
152;DHT22;68;48.792;9.164;2023-05-16T03:38:48;11.80;83.60
152;DHT22;68;48.792;9.164;2023-05-16T03:41:17;11.80;83.00
152;DHT22;68;48.792;9.164;2023-05-16T03:43:43;11.90;83.40
152;DHT22;68;48.792;9.164;2023-05-16T03:46:11;11.90;84.10
152;DHT22;68;48.792;9.164;2023-05-16T03:48:38;12.00;83.30
152;DHT22;68;48.792;9.164;2023-05-16T03:51:05;11.90;83.50
152;DHT22;68;48.792;9.164;2023-05-16T03:53:31;12.00;84.20
152;DHT22;68;48.792;9.164;2023-05-16T03:55:58;12.00;84.70
152;DHT22;68;48.792;9.164;2023-05-16T03:58:26;11.90;83.90
152;DHT22;68;48.792;9.164;2023-05-16T04:00:53;11.90;82.80
152;DHT22;68;48.792;9.164;2023-05-16T04:03:20;11.80;81.20
152;DHT22;68;48.792;9.164;2023-05-16T04:05:52;11.70;79.70
152;DHT22;68;48.792;9.164;2023-05-16T04:08:19;11.80;78.80
152;DHT22;68;48.792;9.164;2023-05-16T04:10:46;12.00;80.00
152;DHT22;68;48.792;9.164;2023-05-16T04:13:13;12.00;82.70
152;DHT22;68;48.792;9.164;2023-05-16T04:15:42;12.00;82.20
152;DHT22;68;48.792;9.164;2023-05-16T04:18:09;12.10;83.00
152;DHT22;68;48.792;9.164;2023-05-16T04:20:35;12.20;83.40
152;DHT22;68;48.792;9.164;2023-05-16T04:23:02;12.10;85.50
152;DHT22;68;48.792;9.164;2023-05-16T04:25:29;12.00;82.40
152;DHT22;68;48.792;9.164;2023-05-16T04:27:56;12.00;81.00
152;DHT22;68;48.792;9.164;2023-05-16T04:30:23;12.00;82.00
152;DHT22;68;48.792;9.164;2023-05-16T04:32:51;11.90;79.10
152;DHT22;68;48.792;9.164;2023-05-16T04:35:18;12.00;79.90
152;DHT22;68;48.792;9.164;2023-05-16T04:37:46;12.00;80.90
152;DHT22;68;48.792;9.164;2023-05-16T04:40:13;12.10;80.10
152;DHT22;68;48.792;9.164;2023-05-16T04:42:40;12.30;82.40
152;DHT22;68;48.792;9.164;2023-05-16T04:45:07;12.30;85.40
152;DHT22;68;48.792;9.164;2023-05-16T04:47:36;12.50;84.80
152;DHT22;68;48.792;9.164;2023-05-16T04:50:06;12.60;87.00
152;DHT22;68;48.792;9.164;2023-05-16T04:52:33;12.70;88.40
152;DHT22;68;48.792;9.164;2023-05-16T04:55:01;12.70;90.10
152;DHT22;68;48.792;9.164;2023-05-16T04:57:28;12.70;91.10
152;DHT22;68;48.792;9.164;2023-05-16T04:59:55;12.60;89.10
152;DHT22;68;48.792;9.164;2023-05-16T05:02:21;12.60;88.70
152;DHT22;68;48.792;9.164;2023-05-16T05:04:49;12.50;88.70
152;DHT22;68;48.792;9.164;2023-05-16T05:07:17;12.50;86.20
152;DHT22;68;48.792;9.164;2023-05-16T05:09:43;12.60;86.90
152;DHT22;68;48.792;9.164;2023-05-16T05:12:10;12.70;87.90
152;DHT22;68;48.792;9.164;2023-05-16T05:14:37;12.70;88.30
152;DHT22;68;48.792;9.164;2023-05-16T05:17:04;12.60;88.80
152;DHT22;68;48.792;9.164;2023-05-16T05:19:30;12.70;87.80
152;DHT22;68;48.792;9.164;2023-05-16T05:21:57;12.70;89.20
152;DHT22;68;48.792;9.164;2023-05-16T05:24:25;12.80;89.10
152;DHT22;68;48.792;9.164;2023-05-16T05:26:52;12.80;90.40
152;DHT22;68;48.792;9.164;2023-05-16T05:29:19;12.70;90.20
152;DHT22;68;48.792;9.164;2023-05-16T05:31:46;12.60;89.80
152;DHT22;68;48.792;9.164;2023-05-16T05:34:13;12.60;88.00
152;DHT22;68;48.792;9.164;2023-05-16T05:36:39;12.50;87.40
152;DHT22;68;48.792;9.164;2023-05-16T05:39:06;12.60;85.40
152;DHT22;68;48.792;9.164;2023-05-16T05:41:36;12.60;86.40
152;DHT22;68;48.792;9.164;2023-05-16T05:44:03;12.40;86.20
152;DHT22;68;48.792;9.164;2023-05-16T05:46:30;12.60;85.60
152;DHT22;68;48.792;9.164;2023-05-16T05:48:57;12.60;86.70
152;DHT22;68;48.792;9.164;2023-05-16T05:51:24;12.60;86.70
152;DHT22;68;48.792;9.164;2023-05-16T05:53:51;12.50;87.50
152;DHT22;68;48.792;9.164;2023-05-16T05:56:18;12.30;84.80
152;DHT22;68;48.792;9.164;2023-05-16T05:58:47;12.40;83.70
152;DHT22;68;48.792;9.164;2023-05-16T06:01:13;12.30;84.40
152;DHT22;68;48.792;9.164;2023-05-16T06:03:40;12.30;83.30
152;DHT22;68;48.792;9.164;2023-05-16T06:06:07;12.40;83.30
152;DHT22;68;48.792;9.164;2023-05-16T06:08:34;12.50;84.60
152;DHT22;68;48.792;9.164;2023-05-16T06:11:01;12.40;83.70
152;DHT22;68;48.792;9.164;2023-05-16T06:13:29;12.50;84.40
152;DHT22;68;48.792;9.164;2023-05-16T06:15:57;12.50;81.90
152;DHT22;68;48.792;9.164;2023-05-16T06:18:24;12.60;84.00
152;DHT22;68;48.792;9.164;2023-05-16T06:20:51;12.50;85.60
152;DHT22;68;48.792;9.164;2023-05-16T06:23:18;12.60;85.70
152;DHT22;68;48.792;9.164;2023-05-16T06:25:46;12.70;86.00
152;DHT22;68;48.792;9.164;2023-05-16T06:28:13;12.70;89.10
152;DHT22;68;48.792;9.164;2023-05-16T06:30:39;12.80;88.00
152;DHT22;68;48.792;9.164;2023-05-16T06:33:07;12.90;89.00
152;DHT22;68;48.792;9.164;2023-05-16T06:35:34;13.00;89.70
152;DHT22;68;48.792;9.164;2023-05-16T06:38:01;13.00;92.30
152;DHT22;68;48.792;9.164;2023-05-16T06:40:28;13.10;91.50
152;DHT22;68;48.792;9.164;2023-05-16T06:42:54;13.10;92.60
152;DHT22;68;48.792;9.164;2023-05-16T06:45:22;12.90;91.50
152;DHT22;68;48.792;9.164;2023-05-16T06:47:49;12.80;91.30
152;DHT22;68;48.792;9.164;2023-05-16T06:50:17;12.60;90.90
152;DHT22;68;48.792;9.164;2023-05-16T06:52:44;12.70;88.30
152;DHT22;68;48.792;9.164;2023-05-16T06:55:11;12.70;89.00
152;DHT22;68;48.792;9.164;2023-05-16T06:57:38;12.50;87.20
152;DHT22;68;48.792;9.164;2023-05-16T07:00:06;12.40;86.30
152;DHT22;68;48.792;9.164;2023-05-16T07:02:33;12.50;86.40
152;DHT22;68;48.792;9.164;2023-05-16T07:05:00;12.70;87.30
152;DHT22;68;48.792;9.164;2023-05-16T07:07:28;12.60;90.60
152;DHT22;68;48.792;9.164;2023-05-16T07:09:55;12.70;88.30
152;DHT22;68;48.792;9.164;2023-05-16T07:12:22;12.70;89.80
152;DHT22;68;48.792;9.164;2023-05-16T07:14:49;12.70;90.00
152;DHT22;68;48.792;9.164;2023-05-16T07:17:17;12.80;90.90
152;DHT22;68;48.792;9.164;2023-05-16T07:19:44;12.80;90.60
152;DHT22;68;48.792;9.164;2023-05-16T07:22:10;12.70;92.00
152;DHT22;68;48.792;9.164;2023-05-16T07:24:39;12.60;91.70
152;DHT22;68;48.792;9.164;2023-05-16T07:27:05;12.60;91.20
152;DHT22;68;48.792;9.164;2023-05-16T07:29:32;12.70;91.70
152;DHT22;68;48.792;9.164;2023-05-16T07:32:00;12.60;93.30
152;DHT22;68;48.792;9.164;2023-05-16T07:34:26;12.50;94.50
152;DHT22;68;48.792;9.164;2023-05-16T07:36:53;12.50;93.90
152;DHT22;68;48.792;9.164;2023-05-16T07:39:20;12.50;94.40
152;DHT22;68;48.792;9.164;2023-05-16T07:41:48;12.50;95.50
152;DHT22;68;48.792;9.164;2023-05-16T07:44:15;12.60;95.20
152;DHT22;68;48.792;9.164;2023-05-16T07:46:42;12.70;94.80
152;DHT22;68;48.792;9.164;2023-05-16T07:49:09;12.90;95.40
152;DHT22;68;48.792;9.164;2023-05-16T07:51:36;13.00;95.50
152;DHT22;68;48.792;9.164;2023-05-16T07:54:03;12.90;95.40
152;DHT22;68;48.792;9.164;2023-05-16T07:56:30;12.90;95.40
152;DHT22;68;48.792;9.164;2023-05-16T07:58:59;12.80;95.40
152;DHT22;68;48.792;9.164;2023-05-16T08:01:25;12.80;95.50
152;DHT22;68;48.792;9.164;2023-05-16T08:03:52;12.80;95.40
152;DHT22;68;48.792;9.164;2023-05-16T08:06:19;12.90;95.40
152;DHT22;68;48.792;9.164;2023-05-16T08:08:46;12.70;95.60
152;DHT22;68;48.792;9.164;2023-05-16T08:11:12;12.70;95.50
152;DHT22;68;48.792;9.164;2023-05-16T08:13:39;12.80;95.60
152;DHT22;68;48.792;9.164;2023-05-16T08:16:07;13.00;95.40
152;DHT22;68;48.792;9.164;2023-05-16T08:18:34;13.00;95.40
152;DHT22;68;48.792;9.164;2023-05-16T08:21:01;12.80;95.50
152;DHT22;68;48.792;9.164;2023-05-16T08:23:28;12.70;95.30
152;DHT22;68;48.792;9.164;2023-05-16T08:25:55;12.80;95.50
152;DHT22;68;48.792;9.164;2023-05-16T08:28:23;12.70;95.30
152;DHT22;68;48.792;9.164;2023-05-16T08:30:50;12.80;95.40
152;DHT22;68;48.792;9.164;2023-05-16T08:33:18;12.80;95.40
152;DHT22;68;48.792;9.164;2023-05-16T08:35:44;12.80;95.40
152;DHT22;68;48.792;9.164;2023-05-16T08:38:13;12.80;95.50
152;DHT22;68;48.792;9.164;2023-05-16T08:40:41;12.60;95.50
152;DHT22;68;48.792;9.164;2023-05-16T08:43:08;12.40;95.00
152;DHT22;68;48.792;9.164;2023-05-16T08:45:35;12.40;95.30
152;DHT22;68;48.792;9.164;2023-05-16T08:48:02;12.40;95.00
152;DHT22;68;48.792;9.164;2023-05-16T08:50:32;12.50;95.20
152;DHT22;68;48.792;9.164;2023-05-16T08:53:03;12.60;95.10
152;DHT22;68;48.792;9.164;2023-05-16T08:55:31;12.70;95.00
152;DHT22;68;48.792;9.164;2023-05-16T08:57:59;12.70;95.60
152;DHT22;68;48.792;9.164;2023-05-16T09:00:26;12.60;95.40
152;DHT22;68;48.792;9.164;2023-05-16T09:02:53;12.70;95.30
152;DHT22;68;48.792;9.164;2023-05-16T09:05:21;12.60;95.30
152;DHT22;68;48.792;9.164;2023-05-16T09:07:49;12.70;94.90
152;DHT22;68;48.792;9.164;2023-05-16T09:10:16;12.80;95.10
152;DHT22;68;48.792;9.164;2023-05-16T09:12:43;12.80;95.20
152;DHT22;68;48.792;9.164;2023-05-16T09:15:10;12.80;95.40
152;DHT22;68;48.792;9.164;2023-05-16T09:17:38;12.80;95.30
152;DHT22;68;48.792;9.164;2023-05-16T09:20:10;12.80;95.10
152;DHT22;68;48.792;9.164;2023-05-16T09:22:37;13.10;95.40
152;DHT22;68;48.792;9.164;2023-05-16T09:25:07;13.10;95.20
152;DHT22;68;48.792;9.164;2023-05-16T09:27:34;13.10;95.30
152;DHT22;68;48.792;9.164;2023-05-16T09:30:01;13.20;95.30
152;DHT22;68;48.792;9.164;2023-05-16T09:32:28;13.40;95.40
152;DHT22;68;48.792;9.164;2023-05-16T09:34:56;13.50;95.50
152;DHT22;68;48.792;9.164;2023-05-16T09:37:24;13.50;95.40
152;DHT22;68;48.792;9.164;2023-05-16T09:39:52;13.50;95.30
152;DHT22;68;48.792;9.164;2023-05-16T09:42:20;13.60;95.40
152;DHT22;68;48.792;9.164;2023-05-16T09:44:49;13.40;95.30
152;DHT22;68;48.792;9.164;2023-05-16T09:47:16;13.20;95.30
152;DHT22;68;48.792;9.164;2023-05-16T09:49:43;13.20;95.00
152;DHT22;68;48.792;9.164;2023-05-16T09:52:11;13.30;95.30
152;DHT22;68;48.792;9.164;2023-05-16T09:54:38;13.40;95.00
152;DHT22;68;48.792;9.164;2023-05-16T09:57:05;13.50;95.20
152;DHT22;68;48.792;9.164;2023-05-16T09:59:36;13.60;95.40
152;DHT22;68;48.792;9.164;2023-05-16T10:02:05;13.80;95.30
152;DHT22;68;48.792;9.164;2023-05-16T10:04:32;14.00;95.30
152;DHT22;68;48.792;9.164;2023-05-16T10:07:02;13.90;94.60
152;DHT22;68;48.792;9.164;2023-05-16T10:09:31;13.90;94.70
152;DHT22;68;48.792;9.164;2023-05-16T10:12:00;13.80;95.00
152;DHT22;68;48.792;9.164;2023-05-16T10:14:29;13.60;95.20
152;DHT22;68;48.792;9.164;2023-05-16T10:16:58;13.70;94.80
152;DHT22;68;48.792;9.164;2023-05-16T10:19:25;13.80;94.70
152;DHT22;68;48.792;9.164;2023-05-16T10:21:57;13.90;94.70
152;DHT22;68;48.792;9.164;2023-05-16T10:24:30;13.60;94.80
152;DHT22;68;48.792;9.164;2023-05-16T10:26:57;13.50;95.20
152;DHT22;68;48.792;9.164;2023-05-16T10:29:24;13.50;95.20
152;DHT22;68;48.792;9.164;2023-05-16T10:31:52;13.50;94.60
152;DHT22;68;48.792;9.164;2023-05-16T10:34:20;13.70;95.00
152;DHT22;68;48.792;9.164;2023-05-16T10:36:47;13.80;94.60
152;DHT22;68;48.792;9.164;2023-05-16T10:39:15;13.60;94.50
152;DHT22;68;48.792;9.164;2023-05-16T10:41:42;13.70;94.80
152;DHT22;68;48.792;9.164;2023-05-16T10:44:13;13.80;94.30
152;DHT22;68;48.792;9.164;2023-05-16T10:46:41;13.70;94.40
152;DHT22;68;48.792;9.164;2023-05-16T10:49:23;13.60;94.60
152;DHT22;68;48.792;9.164;2023-05-16T10:52:05;13.70;95.10
152;DHT22;68;48.792;9.164;2023-05-16T10:54:34;13.70;94.80
152;DHT22;68;48.792;9.164;2023-05-16T10:57:04;13.60;94.80
152;DHT22;68;48.792;9.164;2023-05-16T10:59:42;13.60;95.20
152;DHT22;68;48.792;9.164;2023-05-16T11:02:27;13.60;95.00
152;DHT22;68;48.792;9.164;2023-05-16T11:04:57;13.40;95.20
152;DHT22;68;48.792;9.164;2023-05-16T11:07:29;13.30;95.30
152;DHT22;68;48.792;9.164;2023-05-16T11:10:05;13.40;95.40
152;DHT22;68;48.792;9.164;2023-05-16T11:12:42;13.20;95.50
152;DHT22;68;48.792;9.164;2023-05-16T11:15:22;13.20;95.20
152;DHT22;68;48.792;9.164;2023-05-16T11:17:49;13.10;94.40
152;DHT22;68;48.792;9.164;2023-05-16T11:20:35;13.20;93.90
152;DHT22;68;48.792;9.164;2023-05-16T11:23:23;13.30;93.70
152;DHT22;68;48.792;9.164;2023-05-16T11:25:53;13.20;93.80
152;DHT22;68;48.792;9.164;2023-05-16T11:28:21;13.20;92.90
152;DHT22;68;48.792;9.164;2023-05-16T11:30:50;13.10;92.10
152;DHT22;68;48.792;9.164;2023-05-16T11:33:19;12.90;89.60
152;DHT22;68;48.792;9.164;2023-05-16T11:36:03;12.80;88.60
152;DHT22;68;48.792;9.164;2023-05-16T11:38:31;12.60;85.80
152;DHT22;68;48.792;9.164;2023-05-16T11:41:02;12.40;80.70
152;DHT22;68;48.792;9.164;2023-05-16T11:43:36;12.30;78.90
152;DHT22;68;48.792;9.164;2023-05-16T11:46:03;12.50;77.50
152;DHT22;68;48.792;9.164;2023-05-16T11:48:30;12.40;82.50
152;DHT22;68;48.792;9.164;2023-05-16T11:50:57;12.30;83.20
152;DHT22;68;48.792;9.164;2023-05-16T11:53:26;12.30;83.10
152;DHT22;68;48.792;9.164;2023-05-16T11:55:53;12.40;82.80
152;DHT22;68;48.792;9.164;2023-05-16T11:58:21;12.40;84.40
152;DHT22;68;48.792;9.164;2023-05-16T12:00:48;12.40;84.40
152;DHT22;68;48.792;9.164;2023-05-16T12:03:17;12.40;85.00
152;DHT22;68;48.792;9.164;2023-05-16T12:05:49;12.50;86.10
152;DHT22;68;48.792;9.164;2023-05-16T12:08:17;12.50;85.30
152;DHT22;68;48.792;9.164;2023-05-16T12:10:47;12.30;91.50
152;DHT22;68;48.792;9.164;2023-05-16T12:13:15;12.40;89.00
152;DHT22;68;48.792;9.164;2023-05-16T12:15:42;12.50;89.10
152;DHT22;68;48.792;9.164;2023-05-16T12:18:09;12.40;91.90
152;DHT22;68;48.792;9.164;2023-05-16T12:20:36;12.40;92.00
152;DHT22;68;48.792;9.164;2023-05-16T12:23:04;12.30;91.00
152;DHT22;68;48.792;9.164;2023-05-16T12:25:36;12.40;90.50
152;DHT22;68;48.792;9.164;2023-05-16T12:28:08;12.60;90.40
152;DHT22;68;48.792;9.164;2023-05-16T12:30:34;12.70;93.10
152;DHT22;68;48.792;9.164;2023-05-16T12:33:06;12.60;94.30
152;DHT22;68;48.792;9.164;2023-05-16T12:35:36;12.70;93.10
152;DHT22;68;48.792;9.164;2023-05-16T12:38:03;12.80;94.70
152;DHT22;68;48.792;9.164;2023-05-16T12:40:30;13.00;95.00
152;DHT22;68;48.792;9.164;2023-05-16T12:42:57;12.80;95.70
152;DHT22;68;48.792;9.164;2023-05-16T12:45:26;12.70;95.30
152;DHT22;68;48.792;9.164;2023-05-16T12:47:53;12.70;95.30
152;DHT22;68;48.792;9.164;2023-05-16T12:50:20;12.80;95.50
152;DHT22;68;48.792;9.164;2023-05-16T12:52:49;12.90;95.30
152;DHT22;68;48.792;9.164;2023-05-16T12:55:16;12.90;95.40
152;DHT22;68;48.792;9.164;2023-05-16T12:57:43;12.90;95.30
152;DHT22;68;48.792;9.164;2023-05-16T13:00:13;12.90;95.40
152;DHT22;68;48.792;9.164;2023-05-16T13:02:41;12.90;95.30
152;DHT22;68;48.792;9.164;2023-05-16T13:05:08;12.90;95.60
152;DHT22;68;48.792;9.164;2023-05-16T13:07:36;12.60;95.40
152;DHT22;68;48.792;9.164;2023-05-16T13:10:05;12.40;95.70
152;DHT22;68;48.792;9.164;2023-05-16T13:12:35;12.30;95.50
152;DHT22;68;48.792;9.164;2023-05-16T13:15:02;12.50;95.60
152;DHT22;68;48.792;9.164;2023-05-16T13:17:29;12.20;95.50
152;DHT22;68;48.792;9.164;2023-05-16T13:19:57;12.10;96.40
152;DHT22;68;48.792;9.164;2023-05-16T13:22:23;12.00;95.50
152;DHT22;68;48.792;9.164;2023-05-16T13:24:50;12.10;95.80
152;DHT22;68;48.792;9.164;2023-05-16T13:27:17;12.20;95.80
152;DHT22;68;48.792;9.164;2023-05-16T13:29:44;12.30;95.50
152;DHT22;68;48.792;9.164;2023-05-16T13:32:11;12.20;95.50
152;DHT22;68;48.792;9.164;2023-05-16T13:34:37;12.30;95.50
152;DHT22;68;48.792;9.164;2023-05-16T13:37:05;12.30;95.60
152;DHT22;68;48.792;9.164;2023-05-16T13:39:32;12.20;95.50
152;DHT22;68;48.792;9.164;2023-05-16T13:41:59;12.20;95.50
152;DHT22;68;48.792;9.164;2023-05-16T13:44:27;12.30;95.50
152;DHT22;68;48.792;9.164;2023-05-16T13:46:54;12.40;95.50
152;DHT22;68;48.792;9.164;2023-05-16T13:49:22;12.30;95.40
152;DHT22;68;48.792;9.164;2023-05-16T13:51:49;12.40;95.50
152;DHT22;68;48.792;9.164;2023-05-16T13:54:17;12.50;95.50
152;DHT22;68;48.792;9.164;2023-05-16T13:56:44;12.70;95.20
152;DHT22;68;48.792;9.164;2023-05-16T13:59:11;12.50;95.10
152;DHT22;68;48.792;9.164;2023-05-16T14:01:38;12.30;95.60
152;DHT22;68;48.792;9.164;2023-05-16T14:04:05;12.40;95.40
152;DHT22;68;48.792;9.164;2023-05-16T14:06:31;12.50;95.40
152;DHT22;68;48.792;9.164;2023-05-16T14:08:58;12.40;95.50
152;DHT22;68;48.792;9.164;2023-05-16T14:11:26;12.20;95.30
152;DHT22;68;48.792;9.164;2023-05-16T14:13:53;12.20;95.20
152;DHT22;68;48.792;9.164;2023-05-16T14:16:20;12.30;95.20
152;DHT22;68;48.792;9.164;2023-05-16T14:18:47;12.30;95.00
152;DHT22;68;48.792;9.164;2023-05-16T14:21:14;12.30;95.00
152;DHT22;68;48.792;9.164;2023-05-16T14:23:40;12.30;94.90
152;DHT22;68;48.792;9.164;2023-05-16T14:26:07;12.50;94.80
152;DHT22;68;48.792;9.164;2023-05-16T14:28:35;12.70;94.60
152;DHT22;68;48.792;9.164;2023-05-16T14:31:02;12.80;94.20
152;DHT22;68;48.792;9.164;2023-05-16T14:33:29;12.80;93.80
152;DHT22;68;48.792;9.164;2023-05-16T14:35:57;12.80;93.70
152;DHT22;68;48.792;9.164;2023-05-16T14:38:24;12.80;93.70
152;DHT22;68;48.792;9.164;2023-05-16T14:40:50;12.80;93.10
152;DHT22;68;48.792;9.164;2023-05-16T14:43:17;12.80;93.00
152;DHT22;68;48.792;9.164;2023-05-16T14:45:45;12.70;92.90
152;DHT22;68;48.792;9.164;2023-05-16T14:48:12;12.70;92.70
152;DHT22;68;48.792;9.164;2023-05-16T14:50:39;12.80;92.10
152;DHT22;68;48.792;9.164;2023-05-16T14:53:05;12.90;91.90
152;DHT22;68;48.792;9.164;2023-05-16T14:55:32;12.80;90.40
152;DHT22;68;48.792;9.164;2023-05-16T14:57:59;12.90;91.00
152;DHT22;68;48.792;9.164;2023-05-16T15:00:26;12.90;89.50
152;DHT22;68;48.792;9.164;2023-05-16T15:02:54;12.80;88.60
152;DHT22;68;48.792;9.164;2023-05-16T15:05:21;12.80;89.20
152;DHT22;68;48.792;9.164;2023-05-16T15:07:50;12.80;89.60
152;DHT22;68;48.792;9.164;2023-05-16T15:10:16;13.00;88.50
152;DHT22;68;48.792;9.164;2023-05-16T15:12:44;12.90;87.80
152;DHT22;68;48.792;9.164;2023-05-16T15:15:10;12.80;87.20
152;DHT22;68;48.792;9.164;2023-05-16T15:17:37;12.90;86.80
152;DHT22;68;48.792;9.164;2023-05-16T15:20:07;12.90;87.10
152;DHT22;68;48.792;9.164;2023-05-16T15:22:34;13.10;87.80
152;DHT22;68;48.792;9.164;2023-05-16T15:25:01;13.20;87.00
152;DHT22;68;48.792;9.164;2023-05-16T15:27:30;13.10;88.20
152;DHT22;68;48.792;9.164;2023-05-16T15:29:57;13.10;87.10
152;DHT22;68;48.792;9.164;2023-05-16T15:32:23;13.10;86.00
152;DHT22;68;48.792;9.164;2023-05-16T15:34:50;13.30;86.80
152;DHT22;68;48.792;9.164;2023-05-16T15:37:19;13.20;87.70
152;DHT22;68;48.792;9.164;2023-05-16T15:39:45;13.10;86.70
152;DHT22;68;48.792;9.164;2023-05-16T15:42:12;13.10;88.60
152;DHT22;68;48.792;9.164;2023-05-16T15:44:40;13.10;87.80
152;DHT22;68;48.792;9.164;2023-05-16T15:47:07;13.10;87.80
152;DHT22;68;48.792;9.164;2023-05-16T15:49:34;13.10;89.40
152;DHT22;68;48.792;9.164;2023-05-16T15:52:00;13.30;88.00
152;DHT22;68;48.792;9.164;2023-05-16T15:54:29;13.40;87.10
152;DHT22;68;48.792;9.164;2023-05-16T15:56:58;13.40;86.70
152;DHT22;68;48.792;9.164;2023-05-16T15:59:25;13.50;86.20
152;DHT22;68;48.792;9.164;2023-05-16T16:01:52;13.40;85.20
152;DHT22;68;48.792;9.164;2023-05-16T16:04:19;13.30;85.70
152;DHT22;68;48.792;9.164;2023-05-16T16:06:47;13.20;85.60
152;DHT22;68;48.792;9.164;2023-05-16T16:09:13;13.10;85.30
152;DHT22;68;48.792;9.164;2023-05-16T16:11:42;13.00;84.90
152;DHT22;68;48.792;9.164;2023-05-16T16:14:09;13.00;85.60
152;DHT22;68;48.792;9.164;2023-05-16T16:16:36;12.70;85.40
152;DHT22;68;48.792;9.164;2023-05-16T16:19:04;12.70;85.40
152;DHT22;68;48.792;9.164;2023-05-16T16:21:31;12.80;86.40
152;DHT22;68;48.792;9.164;2023-05-16T16:23:58;12.80;86.80
152;DHT22;68;48.792;9.164;2023-05-16T16:26:26;12.90;86.90
152;DHT22;68;48.792;9.164;2023-05-16T16:28:54;12.90;85.10
152;DHT22;68;48.792;9.164;2023-05-16T16:31:21;12.90;84.70
152;DHT22;68;48.792;9.164;2023-05-16T16:33:47;12.80;84.40
152;DHT22;68;48.792;9.164;2023-05-16T16:36:14;12.80;84.60
152;DHT22;68;48.792;9.164;2023-05-16T16:38:41;12.70;84.10
152;DHT22;68;48.792;9.164;2023-05-16T16:41:08;12.80;84.50
152;DHT22;68;48.792;9.164;2023-05-16T16:43:35;12.90;84.00
152;DHT22;68;48.792;9.164;2023-05-16T16:46:05;13.00;83.50
152;DHT22;68;48.792;9.164;2023-05-16T16:48:32;13.10;83.20
152;DHT22;68;48.792;9.164;2023-05-16T16:50:59;13.00;84.10
152;DHT22;68;48.792;9.164;2023-05-16T16:53:26;12.90;82.70
152;DHT22;68;48.792;9.164;2023-05-16T16:55:52;13.00;83.30